Time;durP1;ratioP1;P1;durP2;ratioP2;P2;SDS_P1;SDS_P2;PMS_P1;PMS_P2;Temp;Humidity;BMP_temperature;BMP_pressure;BME280_temperature;BME280_humidity;BME280_pressure;Samples;Min_cycle;Max_cycle;Signal;HPM_P1;HPM_P2
2021/08/01 00:04:16;;;;;;;5.23;4.73;;;;;;;19.04;64.42;99765.55;257273;1099;114142;-73
2021/08/01 00:09:19;;;;;;;5.95;4.80;;;;;;;19.06;63.58;99766.94;258424;1099;114515;-73
2021/08/01 00:14:21;;;;;;;6.17;5.33;;;;;;;19.09;64.63;99771.03;258985;1100;114719;-76
2021/08/01 00:19:23;;;;;;;6.28;5.65;;;;;;;19.06;64.74;99774.16;257643;1099;114390;-75
2021/08/01 00:24:25;;;;;;;6.23;5.43;;;;;;;19.00;64.53;99775.06;258694;1098;114651;-73
2021/08/01 00:29:27;;;;;;;6.73;5.23;;;;;;;19.08;63.87;99791.66;258280;1096;114566;-73
2021/08/01 00:34:36;;;;;;;5.88;5.38;;;;;;;18.89;65.02;99789.19;259154;1095;114113;-74
2021/08/01 00:39:42;;;;;;;5.58;4.93;;;;;;;18.75;65.21;99797.34;261882;1096;113679;-75
2021/08/01 00:44:44;;;;;;;7.20;4.68;;;;;;;18.68;65.01;99793.88;258941;1095;114086;-73
2021/08/01 00:49:46;;;;;;;6.25;4.93;;;;;;;18.75;64.62;99793.84;258432;1096;114635;-72
2021/08/01 00:54:51;;;;;;;5.08;4.58;;;;;;;18.74;64.85;99793.03;258278;1097;114729;-76
2021/08/01 01:05:35;;;;;;;6.38;4.85;;;;;;;18.57;65.28;99791.94;257189;1097;114346;-73
2021/08/01 01:10:48;;;;;;;7.03;5.80;;;;;;;18.55;64.63;99799.36;257531;1096;114424;-74
2021/08/01 01:15:54;;;;;;;10.40;5.88;;;;;;;18.61;64.15;99787.78;259229;1098;114101;-74
2021/08/01 01:21:10;;;;;;;5.78;5.25;;;;;;;18.61;64.58;99793.14;258265;1097;114953;-73
2021/08/01 01:26:29;;;;;;;5.90;5.25;;;;;;;18.57;64.96;99791.94;257933;1096;114209;-74
2021/08/01 01:31:48;;;;;;;6.85;5.13;;;;;;;18.42;63.64;99800.30;257787;1096;114343;-74
2021/08/01 01:42:17;;;;;;;5.15;4.73;;;;;;;18.14;65.24;99792.70;258674;1097;114158;-74
2021/08/01 01:47:21;;;;;;;5.30;4.80;;;;;;;18.08;66.30;99804.25;257388;1100;114108;-75
2021/08/01 01:52:26;;;;;;;;;;;;;;;17.95;66.93;99805.17;257721;1100;114167;-74
2021/08/01 01:57:39;;;;;;;7.48;5.15;;;;;;;17.91;66.86;99805.83;258124;1099;103180;-73
2021/08/01 02:02:42;;;;;;;5.38;4.88;;;;;;;17.88;66.70;99810.55;258535;1099;114600;-73
2021/08/01 02:07:49;;;;;;;6.55;5.35;;;;;;;17.87;66.73;99797.41;259246;1095;114174;-73
2021/08/01 02:13:02;;;;;;;6.25;5.73;;;;;;;17.94;66.56;99803.51;257778;1096;114562;-76
2021/08/01 02:18:44;;;;;;;6.77;5.73;;;;;;;17.91;67.58;99808.50;258157;1096;115172;-75
2021/08/01 02:23:49;;;;;;;8.40;5.18;;;;;;;17.87;65.88;99813.45;258648;1096;114162;-72
2021/08/01 02:28:59;;;;;;;5.93;5.33;;;;;;;17.75;66.98;99807.97;258876;1098;115377;-74
2021/08/01 02:34:08;;;;;;;7.63;5.40;;;;;;;17.66;67.28;99805.70;258601;1099;114227;-74
2021/08/01 02:39:11;;;;;;;5.27;4.77;;;;;;;17.74;64.44;99802.78;258940;1099;114523;-75
2021/08/01 02:44:20;;;;;;;4.88;4.28;;;;;;;17.69;65.97;99805.28;258712;1096;114653;-76
2021/08/01 02:49:32;;;;;;;5.78;4.33;;;;;;;17.45;66.73;99804.98;258182;1095;114264;-78
2021/08/01 02:54:40;;;;;;;6.67;4.57;;;;;;;17.28;66.98;99799.31;258598;1096;114126;-73
2021/08/01 02:59:50;;;;;;;9.25;5.70;;;;;;;17.32;67.00;99800.53;257962;1095;114482;-74
2021/08/01 03:05:04;;;;;;;8.13;6.13;;;;;;;17.45;67.44;99798.83;258014;1096;114667;-74
2021/08/01 03:10:19;;;;;;;6.03;5.50;;;;;;;17.35;67.46;99794.74;256796;1096;116557;-73
2021/08/01 03:15:22;;;;;;;6.40;5.30;;;;;;;17.46;67.75;99795.13;257848;1096;114448;-74
2021/08/01 03:20:32;;;;;;;8.30;4.90;;;;;;;17.42;67.14;99805.41;258838;1096;114177;-73
2021/08/01 03:25:58;;;;;;;11.43;5.40;;;;;;;17.34;67.16;99795.78;258297;1096;114766;-78
2021/08/01 03:31:13;;;;;;;6.83;4.58;;;;;;;17.14;68.42;99803.86;257869;1096;114769;-73
2021/08/01 03:36:16;;;;;;;5.83;4.87;;;;;;;17.01;67.33;99803.91;257584;1096;114527;-73
2021/08/01 03:41:18;;;;;;;7.38;5.40;;;;;;;17.03;67.91;99809.03;258436;1096;114497;-74
2021/08/01 03:46:24;;;;;;;6.50;5.43;;;;;;;17.08;68.17;99814.55;258138;1095;114703;-73
2021/08/01 03:51:34;;;;;;;6.33;5.73;;;;;;;17.34;67.64;99814.48;257471;1095;114404;-75
2021/08/01 03:56:43;;;;;;;5.90;5.03;;;;;;;17.36;67.13;99816.95;258365;1096;114171;-74
2021/08/01 04:01:45;;;;;;;6.10;5.20;;;;;;;17.20;68.14;99815.55;257622;1095;114538;-73
2021/08/01 04:06:49;;;;;;;;;;;;;;;17.17;68.32;99802.63;257873;1096;114452;-74
2021/08/01 04:12:08;;;;;;;4.23;3.80;;;;;;;17.28;67.37;99804.66;258037;1096;103087;-74
2021/08/01 04:17:22;;;;;;;4.93;4.43;;;;;;;17.30;67.35;99813.27;258863;1095;114171;-74
2021/08/01 04:22:28;;;;;;;5.18;4.43;;;;;;;17.33;68.16;99820.05;258300;1096;114100;-76
2021/08/01 04:27:31;;;;;;;7.15;4.93;;;;;;;17.35;68.09;99815.30;257715;1096;114262;-74
2021/08/01 04:32:33;;;;;;;5.50;4.55;;;;;;;17.47;66.82;99828.81;257946;1096;114305;-74
2021/08/01 04:37:35;;;;;;;4.93;4.40;;;;;;;17.45;67.86;99833.56;258126;1098;114172;-73
2021/08/01 04:42:37;;;;;;;6.03;4.38;;;;;;;17.34;68.60;99835.03;260246;1096;114618;-73
2021/08/01 04:47:40;;;;;;;6.10;4.40;;;;;;;17.25;69.41;99826.44;258916;1096;114403;-74
2021/08/01 04:52:43;;;;;;;5.48;4.85;;;;;;;17.32;69.16;99837.92;257535;1096;114558;-76
2021/08/01 04:57:45;;;;;;;4.68;4.00;;;;;;;17.46;67.28;99833.34;257813;1095;114381;-75
2021/08/01 05:02:48;;;;;;;5.08;4.28;;;;;;;17.49;66.76;99826.77;257149;1096;114306;-74
2021/08/01 05:13:08;;;;;;;4.83;4.15;;;;;;;17.56;65.35;99832.91;258385;1095;114207;-74
2021/08/01 05:18:10;;;;;;;4.90;4.40;;;;;;;17.59;66.32;99840.47;258892;1096;114671;-74
2021/08/01 05:23:12;;;;;;;5.10;4.55;;;;;;;17.81;65.37;99839.17;257062;1096;114735;-73
2021/08/01 05:28:15;;;;;;;4.65;3.80;;;;;;;17.90;65.46;99857.63;257125;1096;114733;-76
2021/08/01 05:33:17;;;;;;;4.33;3.90;;;;;;;17.96;66.28;99859.47;257924;1096;114120;-74
2021/08/01 05:38:21;;;;;;;7.30;3.93;;;;;;;18.07;67.31;99858.78;256770;1096;114113;-74
2021/08/01 05:43:23;;;;;;;4.88;4.30;;;;;;;18.17;65.69;99855.63;257107;1096;114525;-74
2021/08/01 05:48:26;;;;;;;7.73;4.50;;;;;;;18.42;65.15;99858.35;257076;1096;114564;-73
2021/08/01 05:53:28;;;;;;;5.50;3.38;;;;;;;18.64;62.84;99856.91;256067;1096;115506;-72
2021/08/01 05:58:31;;;;;;;4.55;3.65;;;;;;;18.83;62.84;99839.07;255987;1096;115187;-73
2021/08/01 06:03:33;;;;;;;3.75;3.28;;;;;;;18.93;61.72;99843.94;257096;1096;114096;-73
2021/08/01 06:08:36;;;;;;;3.33;2.40;;;;;;;19.04;60.35;99841.34;256264;1095;114543;-74
2021/08/01 06:13:39;;;;;;;3.95;2.70;;;;;;;19.12;59.96;99834.88;256282;1096;114778;-73
2021/08/01 06:18:42;;;;;;;4.10;2.43;;;;;;;19.10;60.05;99828.91;259096;1095;114292;-72
2021/08/01 06:23:57;;;;;;;4.03;2.20;;;;;;;19.20;58.77;99837.27;257638;1096;114734;-73
2021/08/01 06:29:02;;;;;;;3.37;2.83;;;;;;;19.19;60.52;99846.35;257338;1096;114653;-73
2021/08/01 06:34:04;;;;;;;3.55;2.45;;;;;;;19.27;60.71;99839.84;257423;1095;114591;-72
2021/08/01 06:39:08;;;;;;;3.63;2.77;;;;;;;19.31;59.73;99844.56;257872;1095;114491;-73
2021/08/01 06:44:11;;;;;;;3.40;2.75;;;;;;;19.52;58.81;99842.46;258547;1096;114165;-72
2021/08/01 06:49:13;;;;;;;6.83;3.80;;;;;;;19.68;58.58;99839.19;258699;1096;114277;-73
2021/08/01 06:54:21;;;;;;;3.03;2.28;;;;;;;19.74;59.00;99845.53;258790;1096;114286;-75
2021/08/01 06:59:31;;;;;;;2.03;1.90;;;;;;;19.91;56.35;99840.34;256824;1095;114443;-72
2021/08/01 07:04:35;;;;;;;2.43;2.00;;;;;;;20.04;56.09;99834.77;257338;1096;114434;-72
2021/08/01 07:09:40;;;;;;;2.90;1.90;;;;;;;20.07;55.39;99834.33;257163;1096;114730;-74
2021/08/01 07:14:48;;;;;;;1.77;1.60;;;;;;;20.21;50.83;99841.14;257678;1096;115747;-73
2021/08/01 07:19:50;;;;;;;2.03;1.90;;;;;;;20.25;53.18;99841.50;256898;1096;114232;-74
2021/08/01 07:24:52;;;;;;;4.10;1.88;;;;;;;20.30;51.95;99845.12;257309;1095;115416;-74
2021/08/01 07:29:54;;;;;;;1.23;1.13;;;;;;;20.41;50.06;99848.07;257134;1096;199162;-75
2021/08/01 07:34:57;;;;;;;4.40;1.58;;;;;;;20.50;51.01;99842.15;257757;1095;114413;-74
2021/08/01 07:40:00;;;;;;;1.60;1.50;;;;;;;20.50;50.45;99822.55;256870;1096;114384;-68
2021/08/01 07:45:05;;;;;;;1.53;1.38;;;;;;;20.44;51.53;99818.05;256739;1095;115574;-75
2021/08/01 07:50:07;;;;;;;3.55;3.03;;;;;;;20.48;49.80;99824.63;257028;1096;114723;-74
2021/08/01 07:55:14;;;;;;;2.00;1.53;;;;;;;20.55;48.48;99822.66;257106;1094;114769;-75
2021/08/01 08:00:22;;;;;;;3.28;1.50;;;;;;;20.48;50.87;99830.00;256763;1095;115557;-77
2021/08/01 08:05:27;;;;;;;2.45;1.05;;;;;;;20.32;53.00;99839.51;257480;1095;114750;-73
2021/08/01 08:10:36;;;;;;;1.30;1.10;;;;;;;20.14;53.42;99850.34;258094;1095;114285;-74
2021/08/01 08:15:38;;;;;;;1.48;1.20;;;;;;;20.07;54.33;99853.11;257447;1096;114458;-72
2021/08/01 08:20:41;;;;;;;2.50;1.40;;;;;;;20.14;55.48;99848.47;257676;1096;114715;-76
2021/08/01 08:25:47;;;;;;;2.13;1.75;;;;;;;20.20;56.42;99844.84;260045;1096;114527;-74
2021/08/01 08:30:53;;;;;;;3.93;1.80;;;;;;;20.24;56.01;99824.56;257932;1096;114510;-74
2021/08/01 08:35:55;;;;;;;2.10;1.30;;;;;;;20.42;56.84;99833.59;257527;1096;114133;-68
2021/08/01 08:40:57;;;;;;;1.73;1.63;;;;;;;20.57;55.26;99839.36;256844;1096;114427;-75
2021/08/01 08:46:00;;;;;;;2.18;1.30;;;;;;;20.66;55.76;99837.95;256829;1096;114452;-73
2021/08/01 08:51:04;;;;;;;1.25;1.15;;;;;;;20.60;57.44;99825.48;257183;1096;114252;-73
2021/08/01 08:56:08;;;;;;;4.70;1.50;;;;;;;20.71;51.31;99818.45;257746;1096;114293;-73
2021/08/01 09:01:13;;;;;;;1.73;1.40;;;;;;;20.76;52.72;99822.09;257349;1095;115449;-75
2021/08/01 09:06:16;;;;;;;2.73;2.15;;;;;;;20.91;54.16;99826.19;257541;1096;114671;-75
2021/08/01 09:11:21;;;;;;;3.30;1.95;;;;;;;20.93;54.70;99821.38;257613;1096;114252;-76
2021/08/01 09:16:48;;;;;;;2.68;2.00;;;;;;;20.96;55.07;99804.80;257990;1096;114478;-74
2021/08/01 09:21:51;;;;;;;3.78;1.68;;;;;;;21.10;54.42;99795.41;257675;1095;114268;-74
2021/08/01 09:26:57;;;;;;;2.55;1.40;;;;;;;21.35;53.13;99775.54;257942;1096;114819;-73
2021/08/01 09:32:01;;;;;;;2.23;1.60;;;;;;;21.48;53.13;99776.06;257723;1096;114289;-74
2021/08/01 09:37:05;;;;;;;2.60;1.40;;;;;;;21.54;53.54;99776.99;259913;1095;114512;-61
2021/08/01 09:42:09;;;;;;;1.35;1.15;;;;;;;21.43;53.73;99769.78;258487;1096;115328;-75
2021/08/01 09:47:23;;;;;;;1.20;1.10;;;;;;;21.35;52.31;99764.78;258399;1096;114267;-73
2021/08/01 09:52:26;;;;;;;1.15;0.98;;;;;;;21.31;52.65;99758.23;257171;1096;114393;-75
2021/08/01 09:57:28;;;;;;;2.90;1.20;;;;;;;21.21;52.03;99753.45;257797;1096;115060;-77
2021/08/01 10:02:38;;;;;;;1.20;1.10;;;;;;;21.17;52.88;99753.11;257022;1096;114712;-74
2021/08/01 10:07:49;;;;;;;1.35;1.10;;;;;;;21.20;53.51;99747.27;257330;1096;115595;-76
2021/08/01 10:12:57;;;;;;;1.23;1.00;;;;;;;21.19;50.86;99740.27;260789;1096;114516;-74
2021/08/01 10:18:00;;;;;;;1.83;1.10;;;;;;;21.17;51.26;99733.48;258232;1096;115439;-75
2021/08/01 10:23:02;;;;;;;2.25;0.98;;;;;;;21.11;50.63;99727.20;258230;1096;114149;-75
2021/08/01 10:28:07;;;;;;;1.00;0.95;;;;;;;21.09;51.56;99721.23;257499;1096;116139;-75
2021/08/01 10:33:18;;;;;;;2.55;1.30;;;;;;;21.04;51.40;99721.14;258504;1095;115608;-78
2021/08/01 10:38:23;;;;;;;2.43;1.33;;;;;;;21.01;51.54;99722.42;257808;1095;114473;-76
2021/08/01 10:43:29;;;;;;;3.13;1.40;;;;;;;21.06;50.97;99735.14;258580;1096;115757;-81
2021/08/01 10:48:32;;;;;;;4.75;1.40;;;;;;;21.15;52.80;99716.80;257538;1096;115439;-75
2021/08/01 10:53:35;;;;;;;4.30;1.40;;;;;;;21.21;52.66;99697.83;257907;1096;114905;-77
2021/08/01 10:58:40;;;;;;;1.85;1.33;;;;;;;21.23;53.16;99697.61;258822;1096;114513;-76
2021/08/01 11:03:46;;;;;;;1.55;1.45;;;;;;;21.23;55.80;99687.67;258367;1095;114283;-77
2021/08/01 11:09:09;;;;;;;2.05;1.23;;;;;;;21.20;55.34;99666.64;258388;1096;114375;-79
2021/08/01 11:14:47;;;;;;;3.93;1.88;;;;;;;21.19;56.14;99673.08;256721;1096;129875;-80
2021/08/01 11:19:50;;;;;;;2.80;1.38;;;;;;;21.15;56.98;99663.86;257968;1096;114252;-76
2021/08/01 11:25:26;;;;;;;1.98;1.63;;;;;;;21.14;56.56;99678.37;257834;1097;114321;-76
2021/08/01 11:30:50;;;;;;;2.53;1.88;;;;;;;21.14;54.68;99694.48;257225;1097;114211;-76
2021/08/01 11:36:17;;;;;;;3.25;1.40;;;;;;;21.13;55.94;99706.27;257278;1096;114231;-76
2021/08/01 11:46:48;;;;;;;2.93;1.70;;;;;;;20.99;59.37;99723.73;257480;1097;114362;-75
2021/08/01 11:51:54;;;;;;;2.00;1.73;;;;;;;20.74;63.94;99742.80;257283;1096;115410;-76
2021/08/01 11:57:10;;;;;;;1.78;1.68;;;;;;;20.61;68.06;99737.69;257448;1094;114125;-75
2021/08/01 12:02:16;;;;;;;2.48;2.28;;;;;;;20.60;67.71;99752.98;257373;1095;114731;-77
2021/08/01 12:07:21;;;;;;;4.40;3.60;;;;;;;20.43;70.91;99752.82;257997;1096;114608;-75
2021/08/01 12:12:29;;;;;;;9.48;8.55;;;;;;;20.45;69.95;99752.61;257381;1095;118143;-75
2021/08/01 12:17:38;;;;;;;3.85;2.93;;;;;;;20.48;65.86;99738.72;257842;1096;114138;-76
2021/08/01 12:22:53;;;;;;;4.50;3.03;;;;;;;20.52;66.48;99729.19;257096;1095;115637;-76
2021/08/01 12:27:58;;;;;;;3.88;3.23;;;;;;;20.40;67.45;99717.58;257138;1096;114223;-76
2021/08/01 12:33:04;;;;;;;3.60;3.07;;;;;;;19.96;71.30;99730.49;257729;1095;114150;-74
2021/08/01 12:38:10;;;;;;;3.73;3.15;;;;;;;19.76;73.45;99720.89;257661;1097;114163;-76
2021/08/01 12:43:32;;;;;;;4.63;3.15;;;;;;;19.63;73.67;99729.14;257428;1095;114671;-74
2021/08/01 12:48:37;;;;;;;3.43;2.28;;;;;;;19.46;74.33;99717.38;257445;1096;114580;-75
2021/08/01 12:53:47;;;;;;;5.73;2.30;;;;;;;19.39;73.31;99704.09;257616;1095;114237;-75
2021/08/01 12:59:09;;;;;;;2.68;2.43;;;;;;;19.55;72.14;99714.17;257297;1095;114548;-74
2021/08/01 13:04:17;;;;;;;4.05;2.50;;;;;;;19.63;73.02;99677.39;257517;1096;113913;-77
2021/08/01 13:09:19;;;;;;;5.10;2.88;;;;;;;19.85;72.13;99670.42;257341;1096;114601;-77
2021/08/01 13:14:33;;;;;;;3.43;2.43;;;;;;;20.01;71.24;99650.14;256724;1095;114571;-77
2021/08/01 13:19:41;;;;;;;4.20;2.30;;;;;;;20.04;71.02;99642.45;258402;1096;114608;-78
2021/08/01 13:24:55;;;;;;;2.57;2.37;;;;;;;20.16;69.39;99634.39;257590;1096;115051;-76
2021/08/01 13:30:14;;;;;;;3.08;2.40;;;;;;;20.21;69.89;99629.16;257772;1096;114037;-76
2021/08/01 13:35:27;;;;;;;4.80;2.38;;;;;;;20.19;69.95;99631.25;258250;1096;114293;-80
2021/08/01 13:40:38;;;;;;;2.55;2.30;;;;;;;20.06;70.39;99623.45;258505;1095;114049;-75
2021/08/01 13:45:40;;;;;;;7.47;2.87;;;;;;;20.13;69.45;99650.14;260270;1096;114483;-76
2021/08/01 13:50:43;;;;;;;3.10;2.55;;;;;;;20.06;68.30;99650.28;259787;1096;114111;-76
2021/08/01 13:55:45;;;;;;;2.25;2.05;;;;;;;20.00;67.85;99651.20;258062;1096;114207;-77
2021/08/01 14:00:50;;;;;;;2.55;2.10;;;;;;;19.91;68.26;99652.60;258468;1096;114278;-78
2021/08/01 14:05:53;;;;;;;3.70;1.98;;;;;;;19.85;68.78;99626.70;257517;1096;114302;-77
2021/08/01 14:10:56;;;;;;;2.90;2.08;;;;;;;19.92;68.41;99611.31;259320;1095;114558;-74
2021/08/01 14:16:02;;;;;;;2.70;2.40;;;;;;;20.00;68.14;99609.09;259679;1096;114214;-78
2021/08/01 14:21:11;;;;;;;3.98;2.30;;;;;;;20.02;66.77;99606.20;259039;1095;114617;-78
2021/08/01 14:26:14;;;;;;;5.80;2.93;;;;;;;20.01;66.42;99612.59;259270;1095;114638;-76
2021/08/01 14:31:17;;;;;;;3.28;2.38;;;;;;;19.76;67.07;99635.09;258643;1096;114327;-76
2021/08/01 14:36:22;;;;;;;4.33;3.98;;;;;;;19.45;65.42;99652.25;257756;1095;118647;-77
2021/08/01 14:41:24;;;;;;;3.33;1.93;;;;;;;19.50;65.37;99628.28;257938;1096;114667;-76
2021/08/01 14:46:32;;;;;;;5.20;2.80;;;;;;;19.57;72.21;99617.43;258168;1095;114688;-79
2021/08/01 14:56:58;;;;;;;;;;;;;;;19.37;74.50;99611.57;258134;1096;115038;-74
2021/08/01 15:02:33;;;;;;;5.05;2.93;;;;;;;19.35;73.86;99617.17;259177;1095;103090;-79
2021/08/01 15:07:52;;;;;;;3.38;2.30;;;;;;;19.42;73.55;99579.53;258092;1096;114624;-76
2021/08/01 15:13:05;;;;;;;4.28;2.83;;;;;;;19.29;74.51;99581.38;259422;1095;114636;-78
2021/08/01 15:23:35;;;;;;;4.15;2.30;;;;;;;19.05;75.45;99580.50;259293;1097;114456;-79
2021/08/01 15:28:37;;;;;;;2.73;2.40;;;;;;;19.15;75.09;99574.58;257461;1099;117180;-75
2021/08/01 15:33:42;;;;;;;2.23;1.80;;;;;;;19.20;75.03;99577.41;259986;1096;114502;-75
2021/08/01 15:38:48;;;;;;;3.48;2.28;;;;;;;19.20;74.23;99577.41;258734;1096;114970;-75
2021/08/01 15:43:56;;;;;;;2.73;2.15;;;;;;;19.11;75.73;99578.77;261478;1094;113840;-75
2021/08/01 15:49:02;;;;;;;3.55;2.40;;;;;;;19.07;76.59;99566.88;259037;1096;114106;-77
2021/08/01 15:54:09;;;;;;;2.65;2.45;;;;;;;19.12;77.07;99553.63;259463;1096;114209;-75
2021/08/01 15:59:29;;;;;;;;;;;;;;;;;;;;;
2021/08/01 16:12:48;;;;;;;2.83;2.40;;;;;;;19.50;74.50;99534.47;259330;1093;103028;-77
2021/08/01 16:17:52;;;;;;;2.73;2.53;;;;;;;19.57;74.60;99528.98;258762;1093;114283;-81
2021/08/01 16:22:58;;;;;;;2.50;2.30;;;;;;;19.77;73.13;99523.29;258586;1096;114288;-78
2021/08/01 16:28:04;;;;;;;3.08;2.53;;;;;;;19.76;71.88;99510.94;258227;1095;113777;-78
2021/08/01 16:33:07;;;;;;;3.40;3.03;;;;;;;19.64;70.87;99513.63;258941;1093;113700;-74
2021/08/01 16:38:10;;;;;;;2.93;2.73;;;;;;;19.51;71.46;99519.20;259030;1093;113940;-74
2021/08/01 16:43:22;;;;;;;3.60;2.70;;;;;;;19.54;71.63;99529.44;259719;1093;115275;-74
2021/08/01 16:48:25;;;;;;;3.23;2.45;;;;;;;19.65;70.99;99512.57;258572;1096;113977;-74
2021/08/01 16:53:47;;;;;;;3.90;3.03;;;;;;;19.63;70.97;99505.83;259862;1096;114136;-75
2021/08/01 16:58:56;;;;;;;3.93;2.50;;;;;;;19.49;70.57;99515.92;258694;1093;113771;-74
2021/08/01 17:04:19;;;;;;;4.13;2.23;;;;;;;19.31;71.66;99525.72;258270;1092;114310;-77
2021/08/01 17:09:29;;;;;;;4.35;2.30;;;;;;;19.26;71.46;99512.17;258122;1093;113961;-75
2021/08/01 17:14:38;;;;;;;2.65;2.45;;;;;;;19.22;71.91;99484.22;259687;1093;114585;-75
2021/08/01 17:19:44;;;;;;;5.97;4.03;;;;;;;19.25;71.27;99478.40;258979;1093;113999;-74
2021/08/01 17:24:47;;;;;;;4.75;3.13;;;;;;;19.21;70.53;99463.84;258234;1095;114115;-75
2021/08/01 17:30:01;;;;;;;3.50;2.57;;;;;;;19.10;71.46;99470.00;257999;1095;113885;-73
2021/08/01 17:35:08;;;;;;;;;;;;;;;19.06;70.86;99507.14;257735;1096;114359;-73
2021/08/01 17:40:16;;;;;;;3.73;2.70;;;;;;;19.06;70.92;99495.61;256495;1096;801383;-75
2021/08/01 17:45:18;;;;;;;2.80;2.60;;;;;;;19.05;70.90;99493.98;257695;1096;117478;-74
2021/08/01 17:50:20;;;;;;;4.38;2.90;;;;;;;18.99;72.07;99481.51;256707;1095;731087;-75
2021/08/01 17:55:25;;;;;;;4.90;2.95;;;;;;;19.02;71.07;99483.73;258375;1095;114996;-73
2021/08/01 18:00:28;;;;;;;5.30;3.08;;;;;;;18.98;71.17;99474.53;257732;1096;113969;-75
2021/08/01 18:05:35;;;;;;;4.38;2.63;;;;;;;18.83;72.17;99467.73;257852;1095;114381;-75
2021/08/01 18:10:46;;;;;;;3.78;2.80;;;;;;;18.87;71.53;99480.67;256845;1096;114615;-74
2021/08/01 18:15:51;;;;;;;3.90;2.48;;;;;;;18.89;71.47;99491.98;257190;1095;115255;-75
2021/08/01 18:21:02;;;;;;;4.33;2.38;;;;;;;18.82;71.26;99474.14;257275;1096;114832;-73
2021/08/01 18:26:05;;;;;;;3.98;2.53;;;;;;;18.72;72.23;99471.20;257177;1096;115319;-73
2021/08/01 18:31:07;;;;;;;3.38;2.68;;;;;;;18.61;72.96;99474.65;256876;1096;114688;-74
2021/08/01 18:36:09;;;;;;;3.93;2.67;;;;;;;18.60;72.66;99476.48;257293;1095;115102;-75
2021/08/01 18:41:25;;;;;;;4.13;2.35;;;;;;;18.57;73.49;99492.20;257388;1095;113986;-75
2021/08/01 18:46:30;;;;;;;3.45;2.63;;;;;;;18.59;72.55;99490.10;257578;1095;115356;-76
2021/08/01 18:51:35;;;;;;;2.83;2.50;;;;;;;18.54;72.67;99487.30;259755;1095;114371;-77
2021/08/01 18:56:37;;;;;;;;;;;;;;;18.44;73.34;99487.02;257647;1096;114934;-76
2021/08/01 19:01:41;;;;;;;3.30;2.70;;;;;;;18.36;73.65;99494.31;257673;1096;103061;-77
2021/08/01 19:06:43;;;;;;;3.68;2.48;;;;;;;18.27;73.38;99484.97;257967;1095;115191;-75
2021/08/01 19:11:45;;;;;;;3.50;2.73;;;;;;;18.23;74.53;99491.81;257255;1095;114998;-75
2021/08/01 19:17:07;;;;;;;4.53;2.58;;;;;;;18.20;73.85;99492.26;257630;1096;114555;-76
2021/08/01 19:22:15;;;;;;;3.40;2.98;;;;;;;18.27;73.77;99497.53;257471;1095;117232;-75
2021/08/01 19:27:17;;;;;;;4.65;2.68;;;;;;;18.25;74.20;99495.06;256283;1096;809582;-74
2021/08/01 19:32:26;;;;;;;2.70;2.48;;;;;;;18.31;72.78;99493.36;257920;1095;114812;-74
2021/08/01 19:37:33;;;;;;;5.70;2.83;;;;;;;18.19;73.52;99485.28;258376;1095;113970;-77
2021/08/01 19:42:37;;;;;;;3.15;2.30;;;;;;;18.39;71.71;99490.38;258371;1095;114539;-75
2021/08/01 19:47:39;;;;;;;3.30;2.80;;;;;;;18.33;71.82;99492.11;257856;1095;114535;-62
2021/08/01 19:52:42;;;;;;;3.65;2.60;;;;;;;18.24;72.89;99482.74;257849;1096;114236;-75
2021/08/01 19:57:44;;;;;;;5.50;3.88;;;;;;;18.25;72.60;99473.67;258152;1096;114576;-75
2021/08/01 20:02:46;;;;;;;8.65;4.78;;;;;;;18.24;72.95;99471.23;257489;1096;114304;-75
2021/08/01 20:07:51;;;;;;;5.90;5.30;;;;;;;18.19;72.82;99485.28;258119;1095;114365;-74
2021/08/01 20:12:54;;;;;;;8.63;6.35;;;;;;;18.12;72.54;99505.94;258261;1095;114411;-75
2021/08/01 20:17:56;;;;;;;4.55;3.60;;;;;;;18.10;72.66;99498.16;258727;1096;113860;-72
2021/08/01 20:22:58;;;;;;;3.28;2.98;;;;;;;17.80;73.58;99503.41;258143;1096;114832;-77
2021/08/01 20:28:00;;;;;;;5.33;3.18;;;;;;;17.98;74.11;99488.41;258139;1096;114047;-72
2021/08/01 20:33:03;;;;;;;3.03;2.73;;;;;;;17.92;74.06;99478.63;257869;1096;113935;-74
2021/08/01 20:38:05;;;;;;;3.90;3.20;;;;;;;18.02;74.23;99478.89;258271;1096;113887;-74
2021/08/01 20:43:08;;;;;;;4.08;3.45;;;;;;;18.00;74.42;99475.64;257884;1095;114115;-74
2021/08/01 20:48:12;;;;;;;3.70;3.40;;;;;;;17.92;74.20;99491.98;257710;1095;114468;-75
2021/08/01 20:53:19;;;;;;;3.80;3.43;;;;;;;17.87;73.89;99488.13;257198;1096;114123;-74
2021/08/01 20:58:24;;;;;;;3.95;2.93;;;;;;;17.94;74.52;99477.34;257785;1095;114394;-75
2021/08/01 21:03:31;;;;;;;3.68;2.78;;;;;;;17.99;73.90;99474.02;258024;1096;114575;-73
2021/08/01 21:08:34;;;;;;;3.10;2.90;;;;;;;17.90;74.44;99459.30;257513;1095;114316;-74
2021/08/01 21:13:36;;;;;;;4.20;2.95;;;;;;;17.80;74.93;99449.95;257362;1095;114716;-73
2021/08/01 21:18:40;;;;;;;3.35;3.03;;;;;;;17.83;74.89;99452.19;258362;1096;115225;-74
2021/08/01 21:23:42;;;;;;;3.20;2.90;;;;;;;17.80;75.04;99436.59;259481;1096;114247;-74
2021/08/01 21:28:44;;;;;;;3.30;3.00;;;;;;;17.81;75.25;99442.75;259393;1095;114034;-72
2021/08/01 21:33:48;;;;;;;2.60;2.40;;;;;;;17.80;75.21;99443.80;259623;1096;114027;-73
2021/08/01 21:38:53;;;;;;;3.03;2.73;;;;;;;17.75;75.31;99428.44;258478;1095;114163;-74
2021/08/01 21:49:08;;;;;;;3.65;3.00;;;;;;;17.75;75.24;99420.42;259771;1095;113688;-74
2021/08/01 21:54:10;;;;;;;2.83;2.63;;;;;;;17.78;75.25;99413.79;258753;1096;114242;-73
2021/08/01 21:59:12;;;;;;;3.03;2.75;;;;;;;17.66;76.23;99411.02;259765;1095;114287;-72
2021/08/01 22:04:21;;;;;;;3.85;3.13;;;;;;;17.53;77.59;99395.96;259220;1096;114066;-74
2021/08/01 22:09:27;;;;;;;3.28;2.95;;;;;;;17.49;77.67;99407.32;258746;1096;114445;-76
2021/08/01 22:14:40;;;;;;;5.77;3.60;;;;;;;17.52;78.49;99404.21;260220;1094;113842;-73
2021/08/01 22:19:48;;;;;;;3.55;3.10;;;;;;;17.57;78.08;99410.51;259457;1096;114345;-73
2021/08/01 22:24:51;;;;;;;4.75;4.35;;;;;;;17.45;78.72;99409.62;258108;1096;114174;-73
2021/08/01 22:29:57;;;;;;;4.60;3.50;;;;;;;17.26;79.42;99406.11;259341;1095;114543;-75
2021/08/01 22:35:00;;;;;;;6.25;4.88;;;;;;;17.32;79.54;99415.92;259906;1095;114322;-73
2021/08/01 22:40:05;;;;;;;3.60;3.30;;;;;;;17.29;79.59;99427.04;258529;1095;114321;-76
2021/08/01 22:45:09;;;;;;;3.73;3.43;;;;;;;17.29;79.90;99416.36;259491;1096;114314;-73
2021/08/01 22:50:14;;;;;;;7.40;6.70;;;;;;;17.21;80.73;99408.63;259705;1095;114358;-73
2021/08/01 22:55:23;;;;;;;5.75;4.43;;;;;;;17.22;80.89;99409.45;257301;1095;113949;-75
2021/08/01 23:00:30;;;;;;;4.38;3.98;;;;;;;17.22;81.05;99410.26;259206;1096;114038;-73
2021/08/01 23:05:36;;;;;;;4.75;3.98;;;;;;;17.21;81.18;99408.63;258197;1096;114181;-74
2021/08/01 23:10:53;;;;;;;5.03;4.53;;;;;;;17.22;81.07;99409.45;258271;1096;114704;-74
2021/08/01 23:16:03;;;;;;;5.00;4.47;;;;;;;17.11;81.60;99413.64;258752;1095;114441;-73
2021/08/01 23:21:05;;;;;;;7.03;4.50;;;;;;;17.13;81.96;99422.27;258869;1096;114487;-74
2021/08/01 23:26:17;;;;;;;4.80;4.20;;;;;;;17.21;81.85;99411.30;258543;1096;114724;-74
2021/08/01 23:31:23;;;;;;;6.93;4.30;;;;;;;17.19;82.17;99410.69;260053;1096;113888;-74
2021/08/01 23:36:36;;;;;;;5.88;4.58;;;;;;;16.90;82.86;99413.01;258170;1095;113977;-74
2021/08/01 23:41:43;;;;;;;5.55;5.05;;;;;;;16.87;83.27;99418.77;258956;1095;114045;-77
2021/08/01 23:46:49;;;;;;;4.68;4.18;;;;;;;16.53;84.02;99432.54;258210;1096;113873;-76
2021/08/01 23:51:57;;;;;;;7.15;4.73;;;;;;;16.68;83.66;99441.06;258126;1095;114293;-74
2021/08/01 23:56:59;;;;;;;5.87;4.57;;;;;;;16.64;83.69;99439.86;258781;1095;114452;-73
